createdAt,value
2019-03-25T00:00:48.958Z,5.60
2019-03-25T00:03:17.953Z,5.80
2019-03-25T00:05:47.322Z,5.80
2019-03-25T00:08:16.576Z,6.00
2019-03-25T00:10:45.904Z,5.80
2019-03-25T00:13:15.401Z,5.70
2019-03-25T00:15:44.546Z,5.50
2019-03-25T00:18:13.825Z,5.40
2019-03-25T00:20:42.976Z,5.40
2019-03-25T00:23:11.912Z,5.20
2019-03-25T00:25:41.066Z,5.10
2019-03-25T00:28:10.312Z,4.70
2019-03-25T00:30:39.651Z,4.60
2019-03-25T00:33:08.808Z,4.60
2019-03-25T00:35:37.896Z,4.90
2019-03-25T00:38:06.944Z,5.10
2019-03-25T00:40:36.256Z,5.30
2019-03-25T00:43:05.350Z,5.40
2019-03-25T00:45:34.442Z,5.40
2019-03-25T00:48:03.677Z,5.50
2019-03-25T00:50:32.968Z,5.40
2019-03-25T00:53:01.945Z,5.20
2019-03-25T00:55:30.952Z,5.10
2019-03-25T00:58:00.064Z,5.10
2019-03-25T01:00:29.352Z,5.10
2019-03-25T01:02:58.392Z,5.10
2019-03-25T01:05:27.388Z,5.20
2019-03-25T01:07:56.552Z,5.10
2019-03-25T01:10:25.617Z,5.20
2019-03-25T01:12:54.553Z,5.10
2019-03-25T01:15:23.505Z,4.90
2019-03-25T01:17:52.424Z,5.00
2019-03-25T01:20:21.467Z,5.00
2019-03-25T01:22:50.392Z,5.10
2019-03-25T01:25:19.424Z,5.00
2019-03-25T01:27:48.351Z,5.00
2019-03-25T01:30:17.248Z,5.00
2019-03-25T01:32:46.216Z,5.20
2019-03-25T01:35:15.368Z,5.20
2019-03-25T01:37:44.336Z,5.30
2019-03-25T01:40:14.760Z,5.40
2019-03-25T01:42:43.632Z,5.50
2019-03-25T01:45:12.640Z,5.40
2019-03-25T01:47:41.704Z,5.40
2019-03-25T01:50:11.082Z,5.40
2019-03-25T01:52:40.064Z,5.40
2019-03-25T01:55:13.600Z,5.60
2019-03-25T01:57:39.936Z,5.60
2019-03-25T02:00:10.033Z,5.70
2019-03-25T02:02:39.128Z,5.70
2019-03-25T02:05:08.248Z,5.80
2019-03-25T02:07:37.436Z,5.80
2019-03-25T02:10:08.320Z,5.80
2019-03-25T02:12:37.400Z,5.90
2019-03-25T02:15:06.840Z,5.80
2019-03-25T02:17:35.688Z,5.70
2019-03-25T02:20:05.933Z,5.70
2019-03-25T02:22:34.977Z,5.70
2019-03-25T02:25:05.112Z,5.60
2019-03-25T02:27:34.297Z,5.60
2019-03-25T02:30:04.417Z,5.60
2019-03-25T02:32:33.521Z,5.50
2019-03-25T02:35:04.656Z,5.40
2019-03-25T02:37:33.162Z,5.40
2019-03-25T02:40:02.034Z,5.40
2019-03-25T02:42:30.952Z,5.30
2019-03-25T02:45:00.026Z,5.30
2019-03-25T02:47:29.137Z,5.30
2019-03-25T02:49:58.049Z,5.30
2019-03-25T02:52:27.384Z,5.40
2019-03-25T02:54:56.504Z,5.30
2019-03-25T02:57:26.026Z,5.30
2019-03-25T02:59:54.962Z,5.40
2019-03-25T03:02:23.890Z,5.40
2019-03-25T03:04:52.955Z,5.40
2019-03-25T03:07:21.977Z,5.50
2019-03-25T03:09:50.819Z,5.50
2019-03-25T03:12:19.713Z,5.50
2019-03-25T03:14:48.632Z,5.40
2019-03-25T03:17:17.670Z,5.40
2019-03-25T03:19:46.752Z,5.40
2019-03-25T03:22:15.625Z,5.40
2019-03-25T03:24:44.529Z,5.40
2019-03-25T03:27:13.760Z,5.40
2019-03-25T03:29:42.757Z,5.50
2019-03-25T03:32:11.653Z,5.40
2019-03-25T03:34:40.674Z,5.60
2019-03-25T03:37:09.618Z,5.40
2019-03-25T03:39:38.698Z,5.50
2019-03-25T03:42:08.033Z,5.50
2019-03-25T03:44:37.041Z,5.50
2019-03-25T03:47:05.968Z,5.40
2019-03-25T03:49:35.069Z,5.40
2019-03-25T03:52:04.113Z,5.50
2019-03-25T03:54:33.329Z,5.50
2019-03-25T03:57:02.393Z,5.50
2019-03-25T03:59:31.601Z,5.60
2019-03-25T04:02:00.504Z,5.80
2019-03-25T04:04:29.459Z,5.80
2019-03-25T04:06:58.443Z,5.90
2019-03-25T04:09:27.440Z,6.00
2019-03-25T04:11:56.379Z,5.90
2019-03-25T04:14:25.436Z,5.90
2019-03-25T04:16:55.066Z,5.90
2019-03-25T04:19:24.169Z,5.90
2019-03-25T04:21:54.113Z,5.90
2019-03-25T04:24:23.635Z,5.80
2019-03-25T04:26:52.748Z,5.70
2019-03-25T04:29:21.762Z,5.80
2019-03-25T04:31:50.678Z,5.80
2019-03-25T04:34:19.800Z,5.80
2019-03-25T04:36:49.001Z,5.90
2019-03-25T04:39:17.993Z,5.90
2019-03-25T04:41:46.961Z,6.00
2019-03-25T04:44:16.417Z,6.00
2019-03-25T04:46:45.800Z,6.00
2019-03-25T04:49:14.808Z,6.10
2019-03-25T04:51:44.995Z,6.20
2019-03-25T04:54:14.384Z,6.10
2019-03-25T04:56:43.440Z,6.20
2019-03-25T04:59:12.534Z,6.10
2019-03-25T05:01:41.424Z,6.20
2019-03-25T05:04:10.633Z,6.30
2019-03-25T05:06:39.752Z,6.20
2019-03-25T05:09:08.880Z,6.20
2019-03-25T05:11:38.144Z,6.20
2019-03-25T05:14:07.209Z,6.20
2019-03-25T05:16:36.056Z,6.30
2019-03-25T05:19:05.264Z,6.20
2019-03-25T05:21:34.239Z,6.20
2019-03-25T05:24:03.264Z,6.20
2019-03-25T05:26:32.248Z,6.20
2019-03-25T05:29:01.594Z,6.20
2019-03-25T05:31:31.043Z,6.10
2019-03-25T05:34:00.338Z,6.20
2019-03-25T05:36:29.377Z,6.20
2019-03-25T05:38:58.288Z,6.30
2019-03-25T05:41:27.456Z,6.20
2019-03-25T05:43:56.385Z,6.20
2019-03-25T05:46:25.625Z,6.20
2019-03-25T05:48:54.802Z,6.10
2019-03-25T05:51:23.889Z,6.10
2019-03-25T05:53:52.976Z,6.20
2019-03-25T05:56:22.188Z,6.10
2019-03-25T05:58:51.168Z,6.10
2019-03-25T06:01:20.763Z,6.20
2019-03-25T06:03:49.713Z,6.10
2019-03-25T06:06:18.811Z,6.10
2019-03-25T06:08:47.848Z,6.10
2019-03-25T06:11:16.824Z,6.10
2019-03-25T06:13:45.921Z,6.10
2019-03-25T06:16:14.994Z,6.10
2019-03-25T06:18:44.016Z,6.10
2019-03-25T06:21:13.002Z,6.10
2019-03-25T06:23:42.024Z,6.00
2019-03-25T06:26:11.016Z,6.00
2019-03-25T06:28:40.136Z,5.90
2019-03-25T06:31:09.152Z,5.90
2019-03-25T06:33:37.984Z,5.80
2019-03-25T06:36:07.025Z,5.80
2019-03-25T06:38:36.072Z,5.80
2019-03-25T06:41:05.498Z,6.00
2019-03-25T06:43:35.249Z,6.00
2019-03-25T06:46:04.730Z,6.10
2019-03-25T06:48:34.386Z,6.00
2019-03-25T06:51:03.561Z,6.10
2019-03-25T06:53:32.720Z,6.20
2019-03-25T06:56:01.866Z,6.10
2019-03-25T06:58:30.888Z,6.20
2019-03-25T07:01:00.296Z,6.20
2019-03-25T07:03:29.897Z,6.20
2019-03-25T07:05:59.241Z,6.20
2019-03-25T07:08:28.201Z,6.20
2019-03-25T07:10:57.240Z,6.20
2019-03-25T07:13:26.633Z,6.20
2019-03-25T07:15:55.569Z,6.20
2019-03-25T07:18:24.731Z,6.00
2019-03-25T07:20:54.074Z,6.10
2019-03-25T07:23:23.225Z,6.00
2019-03-25T07:25:52.386Z,6.00
2019-03-25T07:28:21.617Z,5.90
2019-03-25T07:30:50.737Z,5.90
2019-03-25T07:33:19.776Z,6.00
2019-03-25T07:35:48.744Z,6.10
2019-03-25T07:38:17.628Z,6.30
2019-03-25T07:40:46.681Z,6.50
2019-03-25T07:43:15.925Z,6.60
2019-03-25T07:45:45.057Z,6.80
2019-03-25T07:48:14.097Z,6.90
2019-03-25T07:50:45.250Z,7.00
2019-03-25T07:53:16.099Z,7.20
2019-03-25T07:55:45.481Z,7.30
2019-03-25T07:58:14.592Z,7.40
2019-03-25T08:00:43.734Z,7.40
2019-03-25T08:03:12.902Z,7.20
2019-03-25T08:05:41.976Z,7.10
2019-03-25T08:08:11.057Z,7.00
2019-03-25T08:10:40.130Z,7.00
2019-03-25T08:13:09.443Z,7.10
2019-03-25T08:15:38.687Z,7.30
2019-03-25T08:18:08.038Z,7.30
2019-03-25T08:20:37.345Z,7.30
2019-03-25T08:23:06.594Z,7.20
2019-03-25T08:25:37.267Z,7.20
2019-03-25T08:28:07.004Z,7.20
2019-03-25T08:30:36.769Z,7.10
2019-03-25T08:33:05.977Z,6.80
2019-03-25T08:35:35.377Z,6.70
2019-03-25T08:38:04.570Z,6.80
2019-03-25T08:40:34.056Z,6.60
2019-03-25T08:43:03.331Z,6.40
2019-03-25T08:45:32.507Z,6.20
2019-03-25T08:48:01.554Z,6.20
2019-03-25T08:50:31.011Z,6.30
2019-03-25T08:53:00.441Z,6.20
2019-03-25T08:55:29.490Z,6.30
2019-03-25T08:57:58.504Z,6.40
2019-03-25T09:00:27.492Z,6.50
2019-03-25T09:02:56.512Z,6.50
2019-03-25T09:05:25.408Z,6.60
2019-03-25T09:07:54.320Z,6.50
2019-03-25T09:10:23.288Z,6.40
2019-03-25T09:12:52.153Z,6.20
2019-03-25T09:15:21.130Z,5.90
2019-03-25T09:17:50.017Z,5.80
2019-03-25T09:20:19.161Z,5.70
2019-03-25T09:22:48.586Z,5.70
2019-03-25T09:25:18.146Z,5.60
2019-03-25T09:27:47.612Z,5.70
2019-03-25T09:30:35.833Z,5.80
2019-03-25T09:33:06.137Z,6.00
2019-03-25T09:35:36.145Z,6.20
2019-03-25T09:38:05.129Z,6.20
2019-03-25T09:40:34.136Z,6.50
2019-03-25T09:43:03.000Z,6.90
2019-03-25T09:45:32.057Z,7.30
2019-03-25T09:48:02.936Z,7.50
2019-03-25T09:50:31.737Z,7.60
2019-03-25T09:53:00.832Z,7.70
2019-03-25T09:55:30.288Z,7.80
2019-03-25T09:57:59.521Z,7.80
2019-03-25T10:00:32.688Z,7.80
2019-03-25T10:03:02.073Z,8.00
2019-03-25T10:05:31.730Z,8.00
2019-03-25T10:08:00.856Z,7.80
2019-03-25T10:10:30.233Z,7.80
2019-03-25T10:12:59.152Z,7.80
2019-03-25T10:15:28.144Z,7.90
2019-03-25T10:17:57.066Z,8.10
2019-03-25T10:20:26.088Z,7.80
2019-03-25T10:22:55.008Z,7.80
2019-03-25T10:25:24.017Z,7.70
2019-03-25T10:27:53.136Z,7.60
2019-03-25T10:30:24.098Z,8.00
2019-03-25T10:32:53.673Z,8.10
2019-03-25T10:35:22.561Z,8.10
2019-03-25T10:37:51.618Z,8.30
2019-03-25T10:40:20.752Z,8.40
2019-03-25T10:42:49.912Z,8.50
2019-03-25T10:45:22.195Z,8.20
2019-03-25T10:47:51.812Z,8.00
2019-03-25T10:50:21.738Z,8.20
2019-03-25T10:52:51.666Z,8.30
2019-03-25T10:55:20.768Z,8.10
2019-03-25T10:57:49.832Z,7.80
2019-03-25T11:00:19.299Z,7.60
2019-03-25T11:02:48.392Z,7.60
2019-03-25T11:05:17.544Z,7.70
2019-03-25T11:07:46.713Z,8.30
2019-03-25T11:10:16.210Z,8.10
2019-03-25T11:12:45.367Z,8.70
2019-03-25T11:15:14.488Z,8.80
2019-03-25T11:17:43.528Z,9.20
2019-03-25T11:20:12.830Z,9.10
2019-03-25T11:22:41.751Z,8.90
2019-03-25T11:25:12.208Z,9.10
2019-03-25T11:27:41.149Z,9.30
2019-03-25T11:30:12.464Z,8.80
2019-03-25T11:32:44.866Z,8.90
2019-03-25T11:35:14.368Z,9.00
2019-03-25T11:37:44.064Z,9.00
2019-03-25T11:40:14.232Z,9.30
2019-03-25T11:42:43.200Z,9.20
2019-03-25T11:45:12.760Z,8.70
2019-03-25T11:47:41.864Z,8.70
2019-03-25T11:50:11.360Z,8.40
2019-03-25T11:52:40.536Z,8.50
2019-03-25T11:55:10.290Z,8.40
2019-03-25T11:57:39.496Z,8.70
2019-03-25T12:00:09.224Z,9.00
2019-03-25T12:02:38.409Z,9.30
2019-03-25T12:05:08.024Z,9.60
2019-03-25T12:07:37.133Z,9.50
2019-03-25T12:10:07.623Z,9.20
2019-03-25T12:12:38.290Z,9.20
2019-03-25T12:15:08.180Z,9.20
2019-03-25T12:17:37.209Z,9.10
2019-03-25T12:20:07.784Z,9.30
2019-03-25T12:22:36.914Z,9.40
2019-03-25T12:25:08.272Z,9.60
2019-03-25T12:27:37.195Z,9.60
2019-03-25T12:30:08.280Z,9.20
2019-03-25T12:32:38.544Z,9.50
2019-03-25T12:35:07.793Z,9.30
2019-03-25T12:37:37.024Z,9.30
2019-03-25T12:40:07.904Z,9.20
2019-03-25T12:42:36.857Z,8.80
2019-03-25T12:45:09.952Z,8.80
2019-03-25T12:47:38.967Z,9.00
2019-03-25T12:50:09.160Z,8.80
2019-03-25T12:52:38.331Z,8.80
2019-03-25T12:55:07.930Z,9.10
2019-03-25T12:57:37.018Z,9.10
2019-03-25T13:00:07.519Z,8.80
2019-03-25T13:02:36.650Z,8.90
2019-03-25T13:05:06.927Z,9.00
2019-03-25T13:07:35.842Z,9.40
2019-03-25T13:10:06.657Z,9.50
2019-03-25T13:12:35.698Z,9.40
2019-03-25T13:15:08.369Z,9.20
2019-03-25T13:17:37.440Z,9.10
2019-03-25T13:20:07.120Z,8.90
2019-03-25T13:22:36.392Z,8.80
2019-03-25T13:25:06.919Z,9.00
2019-03-25T13:27:35.881Z,9.10
2019-03-25T13:30:07.586Z,9.20
2019-03-25T13:32:36.809Z,9.40
2019-03-25T13:35:07.872Z,9.50
2019-03-25T13:37:36.864Z,9.50
2019-03-25T13:40:07.129Z,9.40
2019-03-25T13:42:36.008Z,9.30
2019-03-25T13:45:07.700Z,9.10
2019-03-25T13:47:36.744Z,9.30
2019-03-25T13:50:07.296Z,9.10
2019-03-25T13:52:36.480Z,8.80
2019-03-25T13:55:06.696Z,8.70
2019-03-25T13:57:35.755Z,8.80
2019-03-25T14:00:07.057Z,8.90
2019-03-25T14:02:36.208Z,9.10
2019-03-25T14:05:06.373Z,9.30
2019-03-25T14:07:35.544Z,9.20
2019-03-25T14:10:07.296Z,9.20
2019-03-25T14:12:36.240Z,8.80
2019-03-25T14:15:07.536Z,9.00
2019-03-25T14:17:36.706Z,9.30
2019-03-25T14:20:11.312Z,9.00
2019-03-25T14:22:40.416Z,9.00
2019-03-25T14:25:09.767Z,9.00
2019-03-25T14:27:38.872Z,8.90
2019-03-25T14:30:14.516Z,9.00
2019-03-25T14:32:40.354Z,8.90
2019-03-25T14:35:09.330Z,9.20
2019-03-25T14:37:38.522Z,9.00
2019-03-25T14:40:08.609Z,8.90
2019-03-25T14:42:37.852Z,9.00
2019-03-25T14:45:07.769Z,8.90
2019-03-25T14:47:36.913Z,8.70
2019-03-25T14:50:07.936Z,8.90
2019-03-25T14:52:37.210Z,9.20
2019-03-25T14:55:06.437Z,9.00
2019-03-25T14:57:35.523Z,9.20
2019-03-25T15:00:09.554Z,9.10
2019-03-25T15:02:38.648Z,8.80
2019-03-25T15:05:08.393Z,9.00
2019-03-25T15:07:39.584Z,9.10
2019-03-25T15:10:10.624Z,9.40
2019-03-25T15:12:39.794Z,9.40
2019-03-25T15:15:10.371Z,9.30
2019-03-25T15:17:39.704Z,9.40
2019-03-25T15:20:10.245Z,9.50
2019-03-25T15:22:39.266Z,9.50
2019-03-25T15:25:10.035Z,9.70
2019-03-25T15:27:39.248Z,9.50
2019-03-25T15:30:10.594Z,9.20
2019-03-25T15:32:40.018Z,9.00
2019-03-25T15:35:09.331Z,9.00
2019-03-25T15:37:38.297Z,9.00
2019-03-25T15:40:09.275Z,8.90
2019-03-25T15:42:38.569Z,8.70
2019-03-25T15:45:09.522Z,8.40
2019-03-25T15:47:38.964Z,8.60
2019-03-25T15:50:09.587Z,8.70
2019-03-25T15:52:39.586Z,8.70
2019-03-25T15:55:10.426Z,8.80
2019-03-25T15:57:40.074Z,8.80
2019-03-25T16:00:18.417Z,9.00
2019-03-25T16:02:47.835Z,9.00
2019-03-25T16:05:17.377Z,9.00
2019-03-25T16:07:46.753Z,9.00
2019-03-25T16:10:19.072Z,9.00
2019-03-25T16:12:48.309Z,8.80
2019-03-25T16:15:40.267Z,8.70
2019-03-25T16:18:10.545Z,8.40
2019-03-25T16:20:39.513Z,8.40
2019-03-25T16:23:08.513Z,8.40
2019-03-25T16:25:37.456Z,8.40
2019-03-25T16:28:06.392Z,8.40
2019-03-25T16:30:35.464Z,8.40
2019-03-25T16:33:04.410Z,8.50
2019-03-25T16:35:33.737Z,8.50
2019-03-25T16:38:02.802Z,8.60
2019-03-25T16:40:32.249Z,8.50
2019-03-25T16:43:01.289Z,8.60
2019-03-25T16:45:30.458Z,8.50
2019-03-25T16:47:59.688Z,8.50
2019-03-25T16:50:28.866Z,8.30
2019-03-25T16:52:58.169Z,8.20
2019-03-25T16:55:27.609Z,8.30
2019-03-25T16:57:56.604Z,8.30
2019-03-25T17:00:27.675Z,8.30
2019-03-25T17:02:56.769Z,8.30
2019-03-25T17:05:25.904Z,8.30
2019-03-25T17:07:55.012Z,8.30
2019-03-25T17:10:24.225Z,8.30
2019-03-25T17:12:53.496Z,8.20
2019-03-25T17:15:22.897Z,8.20
2019-03-25T17:17:52.520Z,8.20
2019-03-25T17:20:21.681Z,8.00
2019-03-25T17:22:50.843Z,8.10
2019-03-25T17:25:20.226Z,8.00
2019-03-25T17:27:58.153Z,7.90
2019-03-25T17:30:27.480Z,7.90
2019-03-25T17:32:56.835Z,7.70
2019-03-25T17:35:26.043Z,7.80
2019-03-25T17:37:55.449Z,7.70
2019-03-25T17:40:24.738Z,7.70
2019-03-25T17:42:54.066Z,7.70
2019-03-25T17:45:23.457Z,7.70
2019-03-25T17:47:52.625Z,7.70
2019-03-25T17:50:21.882Z,7.70
2019-03-25T17:52:50.945Z,7.80
2019-03-25T17:55:20.128Z,7.70
2019-03-25T17:57:49.209Z,7.70
2019-03-25T18:00:37.898Z,7.70
2019-03-25T18:03:11.276Z,7.70
2019-03-25T18:05:37.970Z,7.60
2019-03-25T18:08:07.170Z,7.60
2019-03-25T18:10:36.658Z,7.60
2019-03-25T18:13:06.040Z,7.60
2019-03-25T18:15:35.385Z,7.60
2019-03-25T18:18:05.056Z,7.60
2019-03-25T18:20:34.082Z,7.60
2019-03-25T18:23:03.473Z,7.60
2019-03-25T18:25:34.521Z,7.60
2019-03-25T18:28:03.994Z,7.60
2019-03-25T18:30:34.400Z,7.50
2019-03-25T18:33:03.852Z,7.50
2019-03-25T18:35:32.938Z,7.40
2019-03-25T18:38:02.085Z,7.40
2019-03-25T18:40:31.372Z,7.40
2019-03-25T18:43:00.288Z,7.30
2019-03-25T18:45:29.536Z,7.30
2019-03-25T18:47:58.617Z,7.30
2019-03-25T18:50:27.675Z,7.30
2019-03-25T18:52:56.952Z,7.20
2019-03-25T18:55:26.167Z,7.20
2019-03-25T18:57:55.289Z,7.20
2019-03-25T19:00:35.100Z,7.10
2019-03-25T19:03:04.798Z,7.10
2019-03-25T19:05:34.788Z,7.10
2019-03-25T19:08:05.488Z,7.00
2019-03-25T19:10:34.589Z,7.00
2019-03-25T19:13:03.592Z,7.00
2019-03-25T19:15:32.824Z,6.90
2019-03-25T19:18:02.049Z,6.90
2019-03-25T19:20:31.273Z,6.90
2019-03-25T19:23:00.648Z,6.90
2019-03-25T19:25:30.152Z,6.90
2019-03-25T19:28:01.681Z,6.90
2019-03-25T19:30:31.151Z,6.90
2019-03-25T19:33:00.401Z,6.90
2019-03-25T19:35:30.352Z,6.90
2019-03-25T19:37:59.978Z,6.90
2019-03-25T19:40:32.153Z,6.80
2019-03-25T19:43:01.647Z,6.90
2019-03-25T19:45:31.090Z,6.90
2019-03-25T19:48:00.381Z,6.90
2019-03-25T19:50:29.533Z,6.90
2019-03-25T19:52:58.681Z,6.90
2019-03-25T19:55:27.962Z,6.90
2019-03-25T19:57:57.328Z,6.90
2019-03-25T20:00:44.675Z,6.90
2019-03-25T20:03:14.143Z,6.90
2019-03-25T20:05:45.252Z,6.90
2019-03-25T20:08:14.347Z,6.90
2019-03-25T20:10:43.788Z,6.90
2019-03-25T20:13:13.133Z,6.90
2019-03-25T20:15:46.469Z,7.00
2019-03-25T20:18:13.211Z,7.00
2019-03-25T20:20:42.240Z,7.00
2019-03-25T20:23:11.714Z,7.00
2019-03-25T20:25:40.961Z,7.00
2019-03-25T20:28:10.305Z,7.00
2019-03-25T20:30:39.772Z,7.00
2019-03-25T20:33:09.417Z,7.00
2019-03-25T20:35:40.490Z,6.90
2019-03-25T20:38:09.993Z,6.90
2019-03-25T20:40:47.514Z,6.80
2019-03-25T20:43:34.513Z,6.80
2019-03-25T20:46:03.906Z,6.70
2019-03-25T20:48:48.318Z,6.70
2019-03-25T20:51:52.777Z,6.60
2019-03-25T20:54:21.825Z,6.50
2019-03-25T20:57:14.180Z,6.40
2019-03-25T20:59:43.914Z,6.40
2019-03-25T21:02:13.721Z,6.30
2019-03-25T21:04:43.346Z,6.30
2019-03-25T21:07:24.564Z,6.30
2019-03-25T21:10:15.828Z,6.30
2019-03-25T21:12:58.403Z,6.40
2019-03-25T21:15:46.728Z,6.40
2019-03-25T21:18:24.705Z,6.40
2019-03-25T21:20:52.912Z,6.50
2019-03-25T21:23:22.592Z,6.50
2019-03-25T21:25:51.833Z,6.50
2019-03-25T21:28:24.553Z,6.50
2019-03-25T21:30:54.127Z,6.60
2019-03-25T21:33:23.726Z,6.60
2019-03-25T21:35:53.053Z,6.60
2019-03-25T21:38:22.604Z,6.60
2019-03-25T21:40:52.466Z,6.60
2019-03-25T21:43:21.770Z,6.60
2019-03-25T21:45:51.530Z,6.60
2019-03-25T21:48:21.141Z,6.60
2019-03-25T21:50:50.403Z,6.50
2019-03-25T21:53:19.865Z,6.40
2019-03-25T21:55:50.473Z,6.40
2019-03-25T21:58:19.878Z,6.30
2019-03-25T22:00:49.728Z,6.30
2019-03-25T22:03:19.024Z,6.30
2019-03-25T22:05:48.353Z,6.30
2019-03-25T22:08:17.873Z,6.30
2019-03-25T22:10:47.197Z,6.30
2019-03-25T22:13:16.242Z,6.40
2019-03-25T22:15:45.409Z,6.40
2019-03-25T22:18:14.985Z,6.40
2019-03-25T22:20:44.411Z,6.40
2019-03-25T22:23:13.816Z,6.50
2019-03-25T22:25:44.043Z,6.50
2019-03-25T22:28:13.357Z,6.60
2019-03-25T22:30:45.401Z,6.60
2019-03-25T22:33:25.650Z,6.70
2019-03-25T22:35:47.713Z,6.60
2019-03-25T22:38:17.338Z,6.60
2019-03-25T22:40:47.001Z,6.60
2019-03-25T22:43:16.033Z,6.50
2019-03-25T22:45:45.545Z,6.50
2019-03-25T22:48:14.779Z,6.50
2019-03-25T22:50:44.264Z,6.50
2019-03-25T22:53:13.777Z,6.40
2019-03-25T22:55:42.816Z,6.50
2019-03-25T22:58:12.032Z,6.50
2019-03-25T23:00:42.745Z,6.50
2019-03-25T23:03:13.288Z,6.50
2019-03-25T23:05:42.609Z,6.50
2019-03-25T23:08:11.526Z,6.50
2019-03-25T23:10:40.536Z,6.50
2019-03-25T23:13:09.824Z,6.50
2019-03-25T23:15:38.784Z,6.50
2019-03-25T23:18:08.225Z,6.50
2019-03-25T23:20:37.689Z,6.60
2019-03-25T23:23:07.224Z,6.50
2019-03-25T23:25:36.504Z,6.50
2019-03-25T23:28:05.779Z,6.50
2019-03-25T23:30:34.874Z,6.50
2019-03-25T23:33:03.898Z,6.50
2019-03-25T23:35:32.969Z,6.50
2019-03-25T23:38:03.992Z,6.50
2019-03-25T23:40:33.176Z,6.50
2019-03-25T23:43:02.321Z,6.40
2019-03-25T23:45:31.768Z,6.40
2019-03-25T23:48:01.068Z,6.40
2019-03-25T23:50:31.889Z,6.40
2019-03-25T23:53:00.904Z,6.30
2019-03-25T23:55:29.992Z,6.30
2019-03-25T23:57:58.897Z,6.20
